Time;durP1;ratioP1;P1;durP2;ratioP2;P2;SDS_P1;SDS_P2;PMS_P1;PMS_P2;Temp;Humidity;BMP_temperature;BMP_pressure;BME280_temperature;BME280_humidity;BME280_pressure;Samples;Min_cycle;Max_cycle;Signal;HPM_P1;HPM_P2
2022/03/09 00:02:08;;;;;;;13.03;7.10;;;;;;;;;;4995739;28;20459;-75
2022/03/09 00:04:34;;;;;;;13.57;6.57;;;;;;;;;;4995681;28;20424;-75
2022/03/09 00:07:00;;;;;;;8.83;6.90;;;;;;;;;;4995604;28;20822;-75
2022/03/09 00:09:26;;;;;;;13.30;8.57;;;;;;;;;;4995668;28;20514;-75
2022/03/09 00:11:52;;;;;;;12.00;7.97;;;;;;;;;;4995661;28;20919;-75
2022/03/09 00:14:18;;;;;;;12.03;6.60;;;;;;;;;;4995733;28;20436;-75
2022/03/09 00:16:44;;;;;;;11.10;6.80;;;;;;;;;;4995504;28;20485;-75
2022/03/09 00:19:11;;;;;;;10.07;7.50;;;;;;;;;;4995776;28;20784;-75
2022/03/09 00:21:37;;;;;;;11.13;6.37;;;;;;;;;;4995297;28;20407;-76
2022/03/09 00:24:03;;;;;;;12.07;6.67;;;;;;;;;;4994372;28;20766;-75
2022/03/09 00:26:29;;;;;;;11.17;7.20;;;;;;;;;;4994121;28;20416;-75
2022/03/09 00:28:55;;;;;;;11.10;7.30;;;;;;;;;;4995114;28;20428;-75
2022/03/09 00:31:21;;;;;;;9.47;6.63;;;;;;;;;;4995056;28;20397;-75
2022/03/09 00:33:48;;;;;;;11.33;6.40;;;;;;;;;;4995000;28;20408;-76
2022/03/09 00:36:14;;;;;;;12.20;8.03;;;;;;;;;;4995218;28;20408;-75
2022/03/09 00:38:40;;;;;;;14.13;7.23;;;;;;;;;;4994883;28;20456;-75
2022/03/09 00:41:06;;;;;;;11.80;8.03;;;;;;;;;;4994753;28;20749;-75
2022/03/09 00:43:32;;;;;;;13.23;8.50;;;;;;;;;;4994944;28;20877;-75
2022/03/09 00:45:58;;;;;;;17.53;7.57;;;;;;;;;;4994805;28;20396;-75
2022/03/09 00:48:24;;;;;;;15.07;7.87;;;;;;;;;;4994575;28;20482;-75
2022/03/09 00:50:50;;;;;;;10.37;7.10;;;;;;;;;;4994770;28;20397;-75
2022/03/09 00:53:16;;;;;;;12.00;7.47;;;;;;;;;;4993342;28;20408;-75
2022/03/09 00:55:42;;;;;;;10.63;7.37;;;;;;;;;;4994484;28;20400;-75
2022/03/09 00:58:08;;;;;;;12.00;8.53;;;;;;;;;;4994380;28;20546;-75
2022/03/09 01:00:34;;;;;;;14.90;7.70;;;;;;;;;;4994316;28;20931;-75
2022/03/09 01:03:00;;;;;;;9.60;7.70;;;;;;;;;;4994400;28;20428;-75
2022/03/09 01:05:27;;;;;;;14.67;8.23;;;;;;;;;;4994267;28;20408;-75
2022/03/09 01:07:53;;;;;;;10.50;7.07;;;;;;;;;;4994225;28;20403;-75
2022/03/09 01:10:19;;;;;;;12.93;7.87;;;;;;;;;;4994250;28;20412;-75
2022/03/09 01:12:46;;;;;;;12.90;7.93;;;;;;;;;;4992904;28;20779;-75
2022/03/09 01:15:12;;;;;;;12.00;8.20;;;;;;;;;;4994409;28;20462;-75
2022/03/09 01:17:38;;;;;;;9.40;7.80;;;;;;;;;;4994155;28;20534;-75
2022/03/09 01:20:04;;;;;;;12.83;7.53;;;;;;;;;;4994041;28;20419;-75
2022/03/09 01:22:30;;;;;;;10.70;7.57;;;;;;;;;;4993996;28;20399;-75
2022/03/09 01:24:56;;;;;;;10.90;8.40;;;;;;;;;;4994095;28;20404;-75
2022/03/09 01:27:22;;;;;;;11.87;7.83;;;;;;;;;;4993871;28;20419;-75
2022/03/09 01:29:48;;;;;;;13.00;8.47;;;;;;;;;;4994010;28;20431;-75
2022/03/09 01:32:14;;;;;;;13.83;8.90;;;;;;;;;;4993920;28;20396;-75
2022/03/09 01:34:40;;;;;;;11.97;7.87;;;;;;;;;;4992620;28;20563;-75
2022/03/09 01:37:07;;;;;;;14.13;8.60;;;;;;;;;;4993927;28;20451;-75
2022/03/09 01:39:33;;;;;;;11.80;7.43;;;;;;;;;;4993950;28;20923;-76
2022/03/09 01:41:59;;;;;;;10.50;7.23;;;;;;;;;;4993549;28;20912;-75
2022/03/09 01:44:25;;;;;;;15.70;8.90;;;;;;;;;;4993861;28;20404;-75
2022/03/09 01:46:51;;;;;;;14.37;8.23;;;;;;;;;;4993927;28;20404;-75
2022/03/09 01:49:18;;;;;;;10.83;7.63;;;;;;;;;;4993518;28;20515;-75
2022/03/09 01:51:45;;;;;;;12.80;8.40;;;;;;;;;;4993871;28;20411;-75
2022/03/09 01:54:11;;;;;;;12.93;9.13;;;;;;;;;;4993686;28;20400;-75
2022/03/09 01:56:38;;;;;;;15.70;8.43;;;;;;;;;;4993444;28;20503;-75
2022/03/09 01:59:05;;;;;;;15.27;9.30;;;;;;;;;;4993247;28;20440;-75
2022/03/09 02:01:31;;;;;;;11.03;8.00;;;;;;;;;;4993410;28;20495;-75
2022/03/09 02:03:58;;;;;;;15.70;8.00;;;;;;;;;;4992957;28;20408;-75
2022/03/09 02:06:24;;;;;;;15.00;7.63;;;;;;;;;;4993689;28;20794;-75
2022/03/09 02:11:36;;;;;;;10.67;7.77;;;;;;;;;;4993339;28;20443;-75
2022/03/09 02:14:02;;;;;;;11.03;7.60;;;;;;;;;;4993293;28;20438;-75
2022/03/09 02:16:28;;;;;;;12.43;7.77;;;;;;;;;;4993233;28;20507;-75
2022/03/09 02:18:54;;;;;;;15.37;8.87;;;;;;;;;;4993135;28;20460;-75
2022/03/09 02:21:21;;;;;;;10.70;8.00;;;;;;;;;;4993613;28;20826;-75
2022/03/09 02:23:47;;;;;;;12.80;8.47;;;;;;;;;;4993299;28;20407;-74
2022/03/09 02:26:13;;;;;;;19.77;8.10;;;;;;;;;;4993231;28;20419;-75
2022/03/09 02:28:40;;;;;;;14.83;8.40;;;;;;;;;;4993130;28;20416;-75
2022/03/09 02:31:06;;;;;;;15.30;8.77;;;;;;;;;;4993418;28;20784;-75
2022/03/09 02:33:33;;;;;;;15.47;8.37;;;;;;;;;;4993159;28;20400;-75
2022/03/09 02:35:59;;;;;;;11.00;7.67;;;;;;;;;;4993364;28;20422;-75
2022/03/09 02:38:25;;;;;;;11.80;7.73;;;;;;;;;;4993018;28;20506;-75
2022/03/09 02:40:51;;;;;;;10.77;6.80;;;;;;;;;;4991710;28;20442;-75
2022/03/09 02:43:17;;;;;;;11.43;8.03;;;;;;;;;;4993239;28;20397;-75
2022/03/09 02:45:43;;;;;;;15.33;7.83;;;;;;;;;;4988457;28;20605;-75
2022/03/09 02:48:09;;;;;;;16.90;7.73;;;;;;;;;;4973282;28;20441;-75
2022/03/09 02:50:35;;;;;;;11.93;6.70;;;;;;;;;;4974294;28;20432;-75
2022/03/09 02:53:01;;;;;;;12.73;8.50;;;;;;;;;;4972814;28;20409;-75
2022/03/09 02:55:27;;;;;;;13.40;7.30;;;;;;;;;;4974033;28;20424;-75
2022/03/09 02:57:55;;;;;;;12.63;7.90;;;;;;;;;;4974546;28;20484;-75
2022/03/09 03:00:21;;;;;;;12.63;7.50;;;;;;;;;;4974471;28;20855;-75
2022/03/09 03:02:47;;;;;;;11.50;7.90;;;;;;;;;;4974257;28;20933;-75
2022/03/09 03:05:14;;;;;;;9.73;6.17;;;;;;;;;;4974453;28;20397;-75
2022/03/09 03:07:40;;;;;;;11.10;7.50;;;;;;;;;;4974306;28;20419;-75
2022/03/09 03:10:06;;;;;;;9.67;7.50;;;;;;;;;;4974299;28;20834;-75
2022/03/09 03:12:32;;;;;;;8.70;6.77;;;;;;;;;;4974231;28;20921;-75
2022/03/09 03:14:58;;;;;;;13.97;8.03;;;;;;;;;;4974317;28;20405;-75
2022/03/09 03:17:24;;;;;;;15.10;7.80;;;;;;;;;;4976818;28;20890;-75
2022/03/09 03:19:50;;;;;;;9.73;7.03;;;;;;;;;;4977063;28;20964;-75
2022/03/09 03:22:17;;;;;;;12.20;7.50;;;;;;;;;;4976913;28;20420;-75
2022/03/09 03:24:43;;;;;;;9.67;6.20;;;;;;;;;;4976801;28;20401;-75
2022/03/09 03:27:09;;;;;;;8.80;6.50;;;;;;;;;;4977067;28;20405;-75
2022/03/09 03:29:35;;;;;;;16.40;7.40;;;;;;;;;;4976703;28;20425;-74
2022/03/09 03:32:01;;;;;;;11.63;8.60;;;;;;;;;;4976646;28;20504;-74
2022/03/09 03:34:27;;;;;;;10.17;7.20;;;;;;;;;;4976616;28;20488;-74
2022/03/09 03:36:53;;;;;;;12.00;8.20;;;;;;;;;;4976693;28;20456;-74
2022/03/09 03:39:19;;;;;;;13.47;8.17;;;;;;;;;;4976471;28;20429;-75
2022/03/09 03:41:45;;;;;;;13.87;8.47;;;;;;;;;;4976928;28;20401;-75
2022/03/09 03:44:11;;;;;;;18.27;8.23;;;;;;;;;;4976814;28;20492;-74
2022/03/09 03:46:37;;;;;;;15.50;9.67;;;;;;;;;;4976630;28;20404;-74
2022/03/09 03:49:04;;;;;;;15.20;9.77;;;;;;;;;;4976670;28;20448;-74
2022/03/09 03:51:30;;;;;;;13.83;9.07;;;;;;;;;;4976545;28;20401;-75
2022/03/09 03:53:56;;;;;;;11.83;8.57;;;;;;;;;;4976450;28;20459;-74
2022/03/09 03:56:22;;;;;;;15.67;9.00;;;;;;;;;;4976819;28;20493;-74
2022/03/09 04:01:29;;;;;;;13.10;8.40;;;;;;;;;;5004914;28;20475;-77
2022/03/09 04:03:55;;;;;;;13.10;7.10;;;;;;;;;;5015353;28;20415;-77
2022/03/09 04:06:21;;;;;;;12.50;8.57;;;;;;;;;;5030694;28;20410;-76
2022/03/09 04:08:47;;;;;;;15.83;9.27;;;;;;;;;;5030469;28;20419;-76
2022/03/09 04:11:13;;;;;;;13.63;9.17;;;;;;;;;;5015633;28;20435;-77
2022/03/09 04:13:42;;;;;;;12.47;8.10;;;;;;;;;;5015153;28;20414;-77
2022/03/09 04:16:08;;;;;;;12.70;7.50;;;;;;;;;;5014092;28;20437;-77
2022/03/09 04:18:34;;;;;;;14.27;8.37;;;;;;;;;;5002017;28;20544;-76
2022/03/09 04:21:00;;;;;;;12.10;7.90;;;;;;;;;;5015203;28;20435;-77
2022/03/09 04:23:26;;;;;;;14.40;9.00;;;;;;;;;;5015168;28;20884;-77
2022/03/09 04:25:52;;;;;;;13.90;9.00;;;;;;;;;;5015052;28;20502;-77
2022/03/09 04:28:18;;;;;;;11.70;8.60;;;;;;;;;;5014653;28;20443;-77
2022/03/09 04:30:44;;;;;;;18.13;9.73;;;;;;;;;;5015047;28;20935;-77
2022/03/09 04:33:11;;;;;;;13.63;8.73;;;;;;;;;;5014909;28;20408;-77
2022/03/09 04:35:37;;;;;;;18.50;9.60;;;;;;;;;;5013337;28;20414;-77
2022/03/09 04:38:03;;;;;;;13.37;8.47;;;;;;;;;;5014785;28;20450;-77
2022/03/09 04:40:29;;;;;;;15.23;9.00;;;;;;;;;;5014835;28;20499;-77
2022/03/09 04:42:55;;;;;;;12.07;8.53;;;;;;;;;;5014656;28;20399;-76
2022/03/09 04:45:21;;;;;;;19.83;9.27;;;;;;;;;;5014625;28;20404;-76
2022/03/09 04:47:47;;;;;;;15.77;9.00;;;;;;;;;;5014666;28;20514;-77
2022/03/09 04:50:13;;;;;;;12.23;8.70;;;;;;;;;;5014577;28;20438;-76
2022/03/09 04:52:39;;;;;;;15.07;7.10;;;;;;;;;;5014614;28;20502;-78
2022/03/09 04:55:06;;;;;;;10.40;6.70;;;;;;;;;;5014465;28;20506;-77
2022/03/09 04:57:34;;;;;;;11.30;7.10;;;;;;;;;;5014634;28;20439;-76
2022/03/09 05:00:00;;;;;;;10.47;6.97;;;;;;;;;;5014585;28;20850;-77
2022/03/09 05:02:26;;;;;;;11.27;8.50;;;;;;;;;;5015199;28;20463;-77
2022/03/09 05:04:52;;;;;;;18.33;8.70;;;;;;;;;;5009480;28;20432;-77
2022/03/09 05:07:18;;;;;;;12.93;8.13;;;;;;;;;;5004605;28;20782;-77
2022/03/09 05:09:44;;;;;;;14.07;8.40;;;;;;;;;;5014299;28;20419;-77
2022/03/09 05:12:10;;;;;;;13.70;8.60;;;;;;;;;;5014941;28;20403;-76
2022/03/09 05:14:36;;;;;;;14.47;8.57;;;;;;;;;;5013714;28;20427;-76
2022/03/09 05:17:02;;;;;;;17.57;9.03;;;;;;;;;;5013957;28;20446;-76
2022/03/09 05:19:28;;;;;;;18.20;9.43;;;;;;;;;;5013994;28;20435;-76
2022/03/09 05:21:54;;;;;;;18.30;10.00;;;;;;;;;;5012669;28;20419;-76
2022/03/09 05:24:20;;;;;;;18.50;12.23;;;;;;;;;;5014137;28;20407;-76
2022/03/09 05:26:46;;;;;;;15.63;9.50;;;;;;;;;;5014525;28;20403;-76
2022/03/09 05:29:14;;;;;;;12.87;7.73;;;;;;;;;;5014541;28;20414;-78
2022/03/09 05:31:40;;;;;;;14.47;8.83;;;;;;;;;;5014137;28;20562;-76
2022/03/09 05:34:06;;;;;;;12.47;8.30;;;;;;;;;;5014290;28;20818;-77
2022/03/09 05:36:32;;;;;;;14.80;7.50;;;;;;;;;;5013906;28;20775;-77
2022/03/09 05:38:58;;;;;;;15.70;9.13;;;;;;;;;;5013190;28;20463;-77
2022/03/09 05:41:24;;;;;;;12.90;8.53;;;;;;;;;;5013539;28;20405;-77
2022/03/09 05:43:50;;;;;;;12.00;7.63;;;;;;;;;;5013665;28;20434;-77
2022/03/09 05:46:16;;;;;;;11.40;8.00;;;;;;;;;;5013666;28;20395;-77
2022/03/09 05:48:43;;;;;;;12.17;7.60;;;;;;;;;;5013545;28;20969;-77
2022/03/09 05:51:09;;;;;;;15.40;7.77;;;;;;;;;;5013413;28;20435;-77
2022/03/09 05:53:35;;;;;;;17.63;9.10;;;;;;;;;;5013249;28;20439;-77
2022/03/09 05:56:01;;;;;;;11.50;8.40;;;;;;;;;;5013416;28;20598;-77
2022/03/09 05:58:28;;;;;;;15.60;9.57;;;;;;;;;;5013499;28;20843;-77
2022/03/09 06:00:54;;;;;;;14.37;9.43;;;;;;;;;;5011733;28;20831;-77
2022/03/09 06:03:20;;;;;;;10.60;7.57;;;;;;;;;;5013422;28;20904;-77
2022/03/09 06:05:46;;;;;;;15.73;8.30;;;;;;;;;;5013461;28;20439;-77
2022/03/09 06:08:12;;;;;;;19.07;8.67;;;;;;;;;;5013340;28;20935;-77
2022/03/09 06:10:38;;;;;;;17.80;10.00;;;;;;;;;;5011967;28;20951;-76
2022/03/09 06:13:04;;;;;;;13.03;8.77;;;;;;;;;;5013547;28;20923;-77
2022/03/09 06:15:30;;;;;;;15.60;8.50;;;;;;;;;;5011915;28;20502;-77
2022/03/09 06:17:57;;;;;;;15.60;7.80;;;;;;;;;;5013206;28;20503;-77
2022/03/09 06:20:25;;;;;;;14.03;8.00;;;;;;;;;;5013464;28;20791;-77
2022/03/09 06:22:51;;;;;;;14.07;7.87;;;;;;;;;;5013258;28;20494;-77
2022/03/09 06:25:17;;;;;;;14.00;8.70;;;;;;;;;;5013452;28;20422;-77
2022/03/09 06:27:45;;;;;;;11.60;7.87;;;;;;;;;;5013476;28;20448;-76
2022/03/09 06:30:11;;;;;;;13.73;7.83;;;;;;;;;;5012850;28;20450;-76
2022/03/09 06:32:38;;;;;;;15.43;8.10;;;;;;;;;;5013539;28;20773;-78
2022/03/09 06:35:05;;;;;;;12.03;7.13;;;;;;;;;;5013350;28;20525;-77
2022/03/09 06:37:31;;;;;;;10.60;7.40;;;;;;;;;;5013404;28;20959;-77
2022/03/09 06:39:57;;;;;;;13.20;7.47;;;;;;;;;;5013392;28;20935;-77
2022/03/09 06:42:24;;;;;;;10.20;7.90;;;;;;;;;;5013607;28;20410;-77
2022/03/09 06:44:50;;;;;;;13.90;8.60;;;;;;;;;;5013525;28;20403;-77
2022/03/09 06:47:16;;;;;;;16.93;8.93;;;;;;;;;;5014727;28;20473;-77
2022/03/09 06:49:42;;;;;;;12.20;8.40;;;;;;;;;;5012939;28;20434;-77
2022/03/09 06:52:08;;;;;;;21.13;8.50;;;;;;;;;;5018102;28;20435;-77
2022/03/09 06:54:34;;;;;;;10.77;6.90;;;;;;;;;;5018472;28;20415;-77
2022/03/09 06:57:00;;;;;;;12.27;8.00;;;;;;;;;;5018547;28;20458;-77
2022/03/09 06:59:26;;;;;;;11.83;7.67;;;;;;;;;;5017177;28;20442;-77
2022/03/09 07:01:52;;;;;;;13.33;7.30;;;;;;;;;;5017889;28;20392;-76
2022/03/09 07:04:19;;;;;;;13.90;8.13;;;;;;;;;;5018881;28;20396;-77
2022/03/09 07:06:45;;;;;;;15.27;8.30;;;;;;;;;;5018161;28;20607;-77
2022/03/09 07:09:11;;;;;;;13.37;7.90;;;;;;;;;;5017534;28;20396;-77
2022/03/09 07:11:37;;;;;;;12.07;8.57;;;;;;;;;;5030507;28;20399;-77
2022/03/09 07:14:03;;;;;;;11.70;8.30;;;;;;;;;;5020682;28;20453;-76
2022/03/09 07:16:29;;;;;;;12.80;8.10;;;;;;;;;;5017343;28;20466;-77
2022/03/09 07:18:56;;;;;;;11.77;7.10;;;;;;;;;;5016608;28;20442;-76
2022/03/09 07:21:22;;;;;;;14.03;8.30;;;;;;;;;;5017445;28;20399;-76
2022/03/09 07:23:48;;;;;;;14.03;7.60;;;;;;;;;;5020016;28;20422;-76
2022/03/09 07:26:15;;;;;;;15.90;8.87;;;;;;;;;;5016594;28;20399;-77
2022/03/09 07:28:41;;;;;;;18.50;10.40;;;;;;;;;;5017047;28;20400;-77
2022/03/09 07:31:07;;;;;;;12.83;7.57;;;;;;;;;;5017059;28;20421;-77
2022/03/09 07:33:33;;;;;;;13.13;7.63;;;;;;;;;;5016796;28;20522;-77
2022/03/09 07:36:00;;;;;;;13.17;8.50;;;;;;;;;;5016424;28;20399;-77
2022/03/09 07:38:26;;;;;;;11.90;7.63;;;;;;;;;;5016947;28;20455;-77
2022/03/09 07:40:52;;;;;;;15.97;8.60;;;;;;;;;;5016126;28;20465;-77
2022/03/09 07:43:18;;;;;;;13.07;7.53;;;;;;;;;;5016118;28;20404;-76
2022/03/09 07:45:45;;;;;;;15.33;8.70;;;;;;;;;;5016317;28;20446;-77
2022/03/09 07:48:11;;;;;;;14.50;8.57;;;;;;;;;;5016666;28;20411;-77
2022/03/09 07:50:37;;;;;;;10.90;7.63;;;;;;;;;;5014641;28;20785;-75
2022/03/09 07:53:04;;;;;;;12.10;8.57;;;;;;;;;;5009587;28;20423;-78
2022/03/09 07:55:30;;;;;;;10.73;8.27;;;;;;;;;;5014149;28;20419;-77
2022/03/09 07:57:56;;;;;;;13.40;7.67;;;;;;;;;;5010727;28;20463;-75
2022/03/09 08:00:22;;;;;;;11.17;7.27;;;;;;;;;;5013574;28;20517;-74
2022/03/09 08:02:48;;;;;;;15.63;8.00;;;;;;;;;;5013656;28;20422;-77
2022/03/09 08:05:15;;;;;;;18.97;8.90;;;;;;;;;;5006074;28;20172;-77
2022/03/09 08:07:41;;;;;;;13.43;8.30;;;;;;;;;;5015141;28;20490;-76
2022/03/09 08:10:09;;;;;;;12.07;8.60;;;;;;;;;;5012476;28;20443;-77
2022/03/09 08:12:35;;;;;;;24.43;8.70;;;;;;;;;;5016229;28;20415;-76
2022/03/09 08:15:01;;;;;;;16.00;9.43;;;;;;;;;;5030281;28;20979;-76
2022/03/09 08:17:27;;;;;;;10.70;7.50;;;;;;;;;;5007268;28;20455;-76
2022/03/09 08:19:53;;;;;;;17.20;7.77;;;;;;;;;;5017501;28;20519;-76
2022/03/09 08:22:20;;;;;;;13.20;8.70;;;;;;;;;;5014426;28;20505;-77
2022/03/09 08:24:46;;;;;;;14.20;7.80;;;;;;;;;;5014733;28;20412;-76
2022/03/09 08:27:12;;;;;;;16.30;8.63;;;;;;;;;;5012604;28;20415;-76
2022/03/09 08:29:38;;;;;;;13.57;8.33;;;;;;;;;;5015114;28;20490;-77
2022/03/09 08:32:05;;;;;;;11.90;8.60;;;;;;;;;;5016692;28;20415;-77
2022/03/09 08:34:31;;;;;;;15.10;8.87;;;;;;;;;;5010445;28;20454;-77
2022/03/09 08:36:57;;;;;;;12.82;8.40;;;;;;;;;;5015260;28;20794;-77
2022/03/09 08:39:23;;;;;;;11.80;8.63;;;;;;;;;;5001010;28;20193;-76
2022/03/09 08:41:49;;;;;;;14.20;8.90;;;;;;;;;;5008281;28;20415;-77
2022/03/09 08:44:16;;;;;;;13.57;8.07;;;;;;;;;;5012249;28;20415;-76
2022/03/09 08:46:42;;;;;;;14.77;8.07;;;;;;;;;;5015002;28;20427;-77
2022/03/09 08:49:08;;;;;;;13.70;9.30;;;;;;;;;;5021632;28;20409;-76
2022/03/09 08:51:34;;;;;;;12.88;8.68;;;;;;;;;;5021392;28;20415;-77
2022/03/09 08:54:00;;;;;;;12.30;8.60;;;;;;;;;;5011875;28;20419;-76
2022/03/09 08:56:28;;;;;;;12.70;8.30;;;;;;;;;;5017295;28;20183;-77
2022/03/09 08:58:55;;;;;;;16.17;9.07;;;;;;;;;;5017052;28;20451;-76
2022/03/09 09:01:24;;;;;;;12.23;8.43;;;;;;;;;;5011492;28;20458;-75
2022/03/09 09:03:50;;;;;;;15.70;8.90;;;;;;;;;;5012850;28;20412;-76
2022/03/09 09:06:16;;;;;;;10.30;7.77;;;;;;;;;;5016734;28;20477;-75
2022/03/09 09:08:42;;;;;;;15.43;9.20;;;;;;;;;;5011080;28;20420;-76
2022/03/09 09:11:08;;;;;;;15.47;10.17;;;;;;;;;;5021584;28;20439;-76
2022/03/09 09:13:35;;;;;;;13.77;8.27;;;;;;;;;;5011371;28;20423;-74
2022/03/09 09:16:01;;;;;;;11.80;7.93;;;;;;;;;;5013902;28;20430;-76
2022/03/09 09:18:27;;;;;;;12.30;8.50;;;;;;;;;;5009769;28;20493;-74
2022/03/09 09:20:53;;;;;;;13.83;7.77;;;;;;;;;;5017850;28;20434;-77
2022/03/09 09:23:20;;;;;;;11.80;7.50;;;;;;;;;;5026390;28;20411;-75
2022/03/09 09:25:47;;;;;;;18.33;9.00;;;;;;;;;;5011622;28;20971;-75
2022/03/09 09:28:13;;;;;;;11.83;7.67;;;;;;;;;;5015476;28;20471;-75
2022/03/09 09:30:39;;;;;;;11.50;8.00;;;;;;;;;;5010659;28;20935;-75
2022/03/09 09:33:06;;;;;;;12.77;8.63;;;;;;;;;;5018684;28;20450;-76
2022/03/09 09:35:32;;;;;;;11.10;7.83;;;;;;;;;;5021575;28;20454;-76
2022/03/09 09:38:06;;;;;;;18.20;9.20;;;;;;;;;;5011878;28;21018;-76
2022/03/09 09:40:34;;;;;;;10.60;8.30;;;;;;;;;;5021988;28;20445;-76
2022/03/09 09:43:01;;;;;;;10.80;8.37;;;;;;;;;;5013548;28;20476;-77
2022/03/09 09:45:27;;;;;;;14.87;8.30;;;;;;;;;;5014061;28;20846;-76
2022/03/09 09:47:53;;;;;;;12.83;7.57;;;;;;;;;;5014484;28;20953;-77
2022/03/09 09:50:19;;;;;;;12.50;8.47;;;;;;;;;;5017848;28;20439;-76
2022/03/09 09:52:46;;;;;;;13.87;8.30;;;;;;;;;;5016424;28;20426;-75
2022/03/09 09:55:12;;;;;;;12.97;8.03;;;;;;;;;;5018022;28;20422;-76
2022/03/09 09:57:38;;;;;;;12.07;8.13;;;;;;;;;;5015956;28;20540;-76
2022/03/09 10:00:05;;;;;;;13.50;8.50;;;;;;;;;;5016224;28;20470;-75
2022/03/09 10:02:31;;;;;;;14.73;8.43;;;;;;;;;;5018512;28;20595;-75
2022/03/09 10:04:58;;;;;;;10.53;7.90;;;;;;;;;;5020204;28;20425;-76
2022/03/09 10:07:24;;;;;;;8.47;6.50;;;;;;;;;;5010878;28;20423;-77
2022/03/09 10:09:50;;;;;;;15.83;7.87;;;;;;;;;;5012962;28;20458;-75
2022/03/09 10:12:25;;;;;;;11.30;7.47;;;;;;;;;;5008560;28;20481;-77
2022/03/09 10:14:52;;;;;;;18.37;8.90;;;;;;;;;;5012029;28;20532;-77
2022/03/09 10:17:19;;;;;;;12.30;8.63;;;;;;;;;;5009729;28;20466;-77
2022/03/09 10:19:52;;;;;;;11.17;7.83;;;;;;;;;;5011746;28;20446;-76
2022/03/09 10:22:32;;;;;;;11.07;8.37;;;;;;;;;;5012750;28;20416;-77
2022/03/09 10:25:00;;;;;;;9.23;7.97;;;;;;;;;;5014829;28;20469;-77
2022/03/09 10:27:33;;;;;;;9.10;7.17;;;;;;;;;;5014608;28;20445;-77
2022/03/09 10:30:02;;;;;;;10.57;7.30;;;;;;;;;;5003433;28;20460;-76
2022/03/09 10:32:47;;;;;;;8.70;6.27;;;;;;;;;;5013603;28;20199;-75
2022/03/09 10:35:14;;;;;;;11.07;7.27;;;;;;;;;;5015045;28;20481;-75
2022/03/09 10:37:41;;;;;;;10.98;7.28;;;;;;;;;;5011696;28;20371;-75
2022/03/09 10:40:11;;;;;;;7.43;6.47;;;;;;;;;;5011567;28;20250;-75
2022/03/09 10:42:37;;;;;;;9.47;7.00;;;;;;;;;;5011821;28;20431;-75
2022/03/09 10:45:07;;;;;;;8.70;6.87;;;;;;;;;;5012106;28;20419;-75
2022/03/09 10:47:33;;;;;;;7.53;6.03;;;;;;;;;;5011414;28;20465;-75
2022/03/09 10:50:11;;;;;;;9.00;6.97;;;;;;;;;;5004418;28;20492;-75
2022/03/09 10:52:44;;;;;;;10.20;7.30;;;;;;;;;;5013988;28;20521;-75
2022/03/09 10:55:39;;;;;;;9.70;6.10;;;;;;;;;;5013259;28;20944;-76
2022/03/09 10:58:08;;;;;;;12.03;7.37;;;;;;;;;;5007418;28;20564;-75
2022/03/09 11:00:36;;;;;;;12.75;7.05;;;;;;;;;;5014152;28;20418;-76
2022/03/09 11:03:06;;;;;;;9.10;7.53;;;;;;;;;;5011131;28;20175;-78
2022/03/09 11:05:32;;;;;;;9.60;6.80;;;;;;;;;;5012522;28;20411;-75
2022/03/09 11:07:58;;;;;;;9.40;7.57;;;;;;;;;;5015649;28;20319;-77
2022/03/09 11:10:26;;;;;;;9.87;7.53;;;;;;;;;;5016414;28;20434;-77
2022/03/09 11:12:52;;;;;;;11.10;7.63;;;;;;;;;;5015474;28;20411;-77
2022/03/09 11:15:20;;;;;;;10.60;7.40;;;;;;;;;;5014641;28;20411;-76
2022/03/09 11:17:48;;;;;;;11.13;7.87;;;;;;;;;;5018626;28;20451;-77
2022/03/09 11:20:17;;;;;;;12.07;7.03;;;;;;;;;;5016254;28;20427;-77
2022/03/09 11:22:43;;;;;;;8.00;6.07;;;;;;;;;;5013638;28;20414;-77
2022/03/09 11:25:11;;;;;;;10.90;5.70;;;;;;;;;;5017217;28;20426;-78
2022/03/09 11:27:47;;;;;;;8.37;6.43;;;;;;;;;;5016960;28;20442;-78
2022/03/09 11:30:39;;;;;;;7.20;5.73;;;;;;;;;;5017212;28;20431;-77
2022/03/09 11:33:25;;;;;;;13.87;6.40;;;;;;;;;;5014459;28;20441;-77
2022/03/09 11:35:51;;;;;;;8.80;6.27;;;;;;;;;;5007205;28;20995;-77
2022/03/09 11:38:52;;;;;;;8.40;6.20;;;;;;;;;;5015544;28;20451;-78
2022/03/09 11:41:31;;;;;;;7.77;5.70;;;;;;;;;;4981246;28;20815;-77
2022/03/09 11:44:17;;;;;;;9.60;6.60;;;;;;;;;;5013088;28;20848;-77
2022/03/09 11:47:09;;;;;;;9.80;5.13;;;;;;;;;;5012786;28;20936;-77
2022/03/09 11:49:41;;;;;;;7.10;5.20;;;;;;;;;;5004570;28;20502;-77
2022/03/09 11:52:11;;;;;;;7.43;5.53;;;;;;;;;;5019853;28;20415;-77
2022/03/09 11:54:43;;;;;;;10.63;5.90;;;;;;;;;;5017145;28;20427;-78
2022/03/09 11:57:10;;;;;;;8.57;5.27;;;;;;;;;;5018913;28;20411;-77
2022/03/09 11:59:36;;;;;;;9.80;5.90;;;;;;;;;;5018158;28;20570;-76
2022/03/09 12:02:06;;;;;;;8.00;5.23;;;;;;;;;;5015042;28;20481;-75
2022/03/09 12:07:14;;;;;;;7.37;5.10;;;;;;;;;;5011170;28;20457;-75
2022/03/09 12:09:55;;;;;;;9.60;5.87;;;;;;;;;;5015574;28;20438;-75
2022/03/09 12:12:22;;;;;;;11.70;6.10;;;;;;;;;;5015393;28;20778;-75
2022/03/09 12:15:05;;;;;;;7.83;4.80;;;;;;;;;;5008694;28;20446;-74
2022/03/09 12:17:36;;;;;;;7.93;5.40;;;;;;;;;;5014243;28;20451;-75
2022/03/09 12:20:25;;;;;;;8.23;5.23;;;;;;;;;;5015160;28;20435;-75
2022/03/09 12:23:00;;;;;;;7.43;5.70;;;;;;;;;;5008285;28;20399;-74
2022/03/09 12:25:42;;;;;;;7.90;5.80;;;;;;;;;;5012409;28;20418;-76
2022/03/09 12:28:28;;;;;;;7.50;5.70;;;;;;;;;;5012940;28;20932;-76
2022/03/09 12:30:58;;;;;;;7.87;5.57;;;;;;;;;;5008611;28;20467;-76
2022/03/09 12:33:28;;;;;;;8.10;5.33;;;;;;;;;;5013547;28;20419;-76
2022/03/09 12:35:54;;;;;;;9.03;5.40;;;;;;;;;;5009962;28;20461;-76
2022/03/09 12:38:22;;;;;;;12.00;5.90;;;;;;;;;;5010523;28;20469;-75
2022/03/09 12:40:48;;;;;;;7.87;5.33;;;;;;;;;;5012584;28;20481;-75
2022/03/09 12:43:14;;;;;;;8.73;6.00;;;;;;;;;;5013106;28;20411;-75
2022/03/09 12:45:53;;;;;;;9.77;5.97;;;;;;;;;;5012751;28;20403;-79
2022/03/09 12:48:19;;;;;;;7.30;5.37;;;;;;;;;;5016009;28;20795;-77
2022/03/09 12:50:45;;;;;;;9.10;5.00;;;;;;;;;;5016068;28;20431;-78
2022/03/09 12:53:12;;;;;;;6.73;4.70;;;;;;;;;;5010140;28;20424;-77
2022/03/09 12:55:39;;;;;;;7.23;5.40;;;;;;;;;;5002828;28;20439;-77
2022/03/09 12:58:05;;;;;;;8.97;6.40;;;;;;;;;;5003909;28;20541;-77
2022/03/09 13:00:35;;;;;;;10.47;5.10;;;;;;;;;;5006359;28;20829;-77
2022/03/09 13:03:01;;;;;;;4.50;3.43;;;;;;;;;;5007959;28;20417;-77
2022/03/09 13:05:28;;;;;;;8.23;3.70;;;;;;;;;;5010512;28;20433;-77
2022/03/09 13:07:55;;;;;;;6.20;4.43;;;;;;;;;;5009864;28;20468;-78
2022/03/09 13:10:21;;;;;;;6.63;4.63;;;;;;;;;;5011913;28;20252;-78
2022/03/09 13:12:51;;;;;;;6.40;4.05;;;;;;;;;;5013704;28;20423;-78
2022/03/09 13:15:18;;;;;;;5.73;4.00;;;;;;;;;;5024882;28;20173;-78
2022/03/09 13:17:48;;;;;;;6.13;4.50;;;;;;;;;;5010424;28;20832;-76
2022/03/09 13:20:15;;;;;;;7.18;3.92;;;;;;;;;;5011099;28;20422;-76
2022/03/09 13:22:45;;;;;;;5.87;4.23;;;;;;;;;;5006964;28;20177;-76
2022/03/09 13:25:11;;;;;;;7.80;5.03;;;;;;;;;;5008771;28;20411;-77
2022/03/09 13:27:38;;;;;;;7.47;4.93;;;;;;;;;;5013592;28;20431;-76
2022/03/09 13:30:15;;;;;;;5.10;4.00;;;;;;;;;;5011924;28;20478;-77
2022/03/09 13:32:41;;;;;;;7.03;4.03;;;;;;;;;;5003352;28;20450;-76
2022/03/09 13:35:07;;;;;;;6.03;4.77;;;;;;;;;;5009502;28;20443;-76
2022/03/09 13:37:38;;;;;;;7.37;4.03;;;;;;;;;;5012282;28;20463;-79
2022/03/09 13:40:06;;;;;;;8.70;4.70;;;;;;;;;;5010242;28;20474;-77
2022/03/09 13:42:37;;;;;;;6.50;4.60;;;;;;;;;;5008509;28;20426;-76
2022/03/09 13:45:07;;;;;;;5.90;4.00;;;;;;;;;;5012411;28;20404;-76
2022/03/09 13:47:45;;;;;;;7.13;4.60;;;;;;;;;;5011538;28;20419;-76
2022/03/09 13:50:48;;;;;;;6.40;4.30;;;;;;;;;;5016151;28;20434;-77
2022/03/09 13:53:15;;;;;;;11.33;4.97;;;;;;;;;;4995267;28;20481;-77
2022/03/09 13:55:43;;;;;;;6.97;4.80;;;;;;;;;;5011100;28;20948;-77
2022/03/09 13:58:10;;;;;;;7.67;4.60;;;;;;;;;;5006778;28;22145;-76
2022/03/09 14:00:38;;;;;;;11.57;5.30;;;;;;;;;;5004275;28;20458;-76
2022/03/09 14:03:17;;;;;;;8.90;5.37;;;;;;;;;;5009912;28;20961;-77
2022/03/09 14:05:44;;;;;;;5.90;4.77;;;;;;;;;;5009621;28;20426;-76
2022/03/09 14:08:23;;;;;;;5.23;3.90;;;;;;;;;;5010956;28;20447;-77
2022/03/09 14:10:51;;;;;;;4.63;3.50;;;;;;;;;;5010655;28;20434;-77
2022/03/09 14:13:17;;;;;;;12.60;5.63;;;;;;;;;;5010305;28;20415;-77
2022/03/09 14:15:43;;;;;;;8.43;4.40;;;;;;;;;;5013495;28;20916;-78
2022/03/09 14:18:10;;;;;;;8.10;4.57;;;;;;;;;;5012101;28;20550;-77
2022/03/09 14:20:36;;;;;;;6.60;4.90;;;;;;;;;;5011999;28;20458;-78
2022/03/09 14:23:04;;;;;;;6.87;5.10;;;;;;;;;;5010369;28;20411;-77
2022/03/09 14:25:30;;;;;;;8.53;4.53;;;;;;;;;;5010840;28;20860;-76
2022/03/09 14:27:58;;;;;;;5.53;4.50;;;;;;;;;;5010772;28;20443;-76
2022/03/09 14:30:24;;;;;;;6.13;4.50;;;;;;;;;;5009968;28;20474;-76
2022/03/09 14:32:50;;;;;;;7.13;4.43;;;;;;;;;;5011126;28;20473;-76
2022/03/09 14:35:17;;;;;;;7.57;4.87;;;;;;;;;;5011095;28;20423;-77
2022/03/09 14:37:46;;;;;;;6.70;4.07;;;;;;;;;;5010070;28;21034;-75
2022/03/09 14:40:12;;;;;;;7.10;4.22;;;;;;;;;;5007492;28;20513;-75
2022/03/09 14:42:38;;;;;;;7.40;4.63;;;;;;;;;;5009841;28;20412;-77
2022/03/09 14:45:05;;;;;;;6.13;4.57;;;;;;;;;;5007888;28;20429;-76